createdAt,value
2023-03-11T00:01:34.543Z,31.09
2023-03-11T00:05:08.911Z,30.60
2023-03-11T00:08:27.858Z,30.80
2023-03-11T00:15:13.465Z,30.09
2023-03-11T00:18:19.999Z,30.23
2023-03-11T00:25:22.733Z,29.39
2023-03-11T00:29:18.846Z,29.41
2023-03-11T00:33:33.654Z,29.12
2023-03-11T00:37:02.455Z,30.77
2023-03-11T00:40:29.703Z,32.40
2023-03-11T00:43:57.837Z,32.59
2023-03-11T00:47:04.565Z,33.09
2023-03-11T00:50:40.230Z,33.71
2023-03-11T00:53:48.888Z,33.94
2023-03-11T00:56:52.757Z,33.65
2023-03-11T01:00:25.188Z,34.53
2023-03-11T01:03:30.069Z,34.31
2023-03-11T01:06:45.059Z,33.88
2023-03-11T01:09:51.406Z,34.62
2023-03-11T01:13:23.641Z,33.72
2023-03-11T01:16:37.637Z,33.29
2023-03-11T01:19:58.824Z,32.76
2023-03-11T01:23:21.589Z,33.00
2023-03-11T01:26:28.391Z,33.32
2023-03-11T01:29:35.664Z,32.96
2023-03-11T01:32:44.578Z,32.70
2023-03-11T01:36:01.695Z,32.41
2023-03-11T01:39:10.918Z,31.86
2023-03-11T01:42:20.632Z,32.67
2023-03-11T01:45:54.705Z,32.27
2023-03-11T01:49:04.107Z,31.82
2023-03-11T01:52:14.268Z,31.52
2023-03-11T01:55:27.697Z,31.62
2023-03-11T01:58:42.872Z,31.60
2023-03-11T02:02:18.550Z,30.73
2023-03-11T02:05:26.237Z,30.93
2023-03-11T02:08:35.260Z,31.09
2023-03-11T02:11:40.451Z,30.52
2023-03-11T02:14:55.485Z,30.55
2023-03-11T02:18:06.296Z,30.36
2023-03-11T02:21:35.804Z,30.30
2023-03-11T02:24:55.212Z,29.47
2023-03-11T02:28:24.255Z,29.99
2023-03-11T02:31:42.457Z,29.41
2023-03-11T02:35:12.625Z,29.50
2023-03-11T02:38:32.285Z,29.27
2023-03-11T02:41:47.072Z,28.65
2023-03-11T02:45:23.210Z,28.30
2023-03-11T02:48:31.953Z,27.93
2023-03-11T02:51:40.356Z,27.47
2023-03-11T02:55:10.804Z,27.37
2023-03-11T02:58:25.541Z,27.50
2023-03-11T03:01:32.036Z,27.10
2023-03-11T03:04:51.916Z,26.76
2023-03-11T03:08:20.927Z,27.09
2023-03-11T03:11:27.828Z,26.60
2023-03-11T03:14:58.900Z,26.92
2023-03-11T03:18:03.026Z,26.79
2023-03-11T03:21:12.508Z,27.23
2023-03-11T03:24:16.879Z,27.30
2023-03-11T03:27:20.924Z,26.72
2023-03-11T03:30:24.595Z,26.99
2023-03-11T03:33:42.139Z,26.66
2023-03-11T03:36:45.938Z,26.00
2023-03-11T03:40:23.684Z,26.57
2023-03-11T03:43:37.891Z,26.82
2023-03-11T03:46:41.623Z,26.66
2023-03-11T03:49:46.780Z,26.84
2023-03-11T03:52:50.551Z,26.99
2023-03-11T03:55:58.255Z,26.65
2023-03-11T03:59:04.982Z,26.62
2023-03-11T04:02:35.101Z,26.03
2023-03-11T04:05:38.750Z,26.19
2023-03-11T04:09:07.892Z,26.42
2023-03-11T04:12:21.217Z,26.15
2023-03-11T04:15:24.962Z,26.30
2023-03-11T04:18:29.368Z,25.94
2023-03-11T04:21:42.416Z,25.79
2023-03-11T04:24:49.366Z,26.12
2023-03-11T04:27:54.020Z,25.31
2023-03-11T04:30:59.724Z,25.43
2023-03-11T04:34:38.540Z,25.49
2023-03-11T04:37:51.052Z,25.81
2023-03-11T04:41:04.140Z,25.36
2023-03-11T04:44:08.025Z,25.53
2023-03-11T04:47:37.247Z,25.36
2023-03-11T04:50:49.241Z,25.09
2023-03-11T04:53:53.203Z,25.32
2023-03-11T04:56:59.435Z,25.39
2023-03-11T05:00:05.217Z,25.75
2023-03-11T05:03:18.606Z,25.34
2023-03-11T05:06:23.097Z,24.95
2023-03-11T05:09:27.745Z,25.39
2023-03-11T05:12:35.010Z,25.49
2023-03-11T05:15:43.619Z,26.02
2023-03-11T05:18:47.307Z,25.78
2023-03-11T05:22:05.511Z,25.84
2023-03-11T05:25:12.567Z,26.21
2023-03-11T05:28:19.334Z,26.45
2023-03-11T05:31:27.193Z,25.72
2023-03-11T05:34:33.915Z,25.41
2023-03-11T05:37:41.107Z,25.56
2023-03-11T05:40:48.215Z,24.99
2023-03-11T05:43:52.831Z,25.43
2023-03-11T05:46:59.593Z,25.46
2023-03-11T05:50:14.891Z,25.30
2023-03-11T05:53:22.417Z,25.19
2023-03-11T05:56:29.815Z,25.18
2023-03-11T05:59:46.961Z,25.44
2023-03-11T06:02:51.644Z,25.60
2023-03-11T06:05:57.072Z,25.32
2023-03-11T06:09:01.235Z,25.36
2023-03-11T06:12:22.301Z,25.32
2023-03-11T06:15:47.530Z,25.11
2023-03-11T06:18:51.902Z,25.75
2023-03-11T06:21:56.094Z,25.31
2023-03-11T06:25:13.283Z,25.41
2023-03-11T06:28:21.898Z,25.96
2023-03-11T06:31:33.768Z,25.43
2023-03-11T06:34:54.109Z,25.37
2023-03-11T06:38:05.112Z,24.71
2023-03-11T06:41:12.158Z,24.67
2023-03-11T06:44:43.718Z,24.82
2023-03-11T06:47:56.802Z,24.69
2023-03-11T06:51:03.015Z,24.97
2023-03-11T06:54:08.362Z,24.91
2023-03-11T06:57:23.308Z,24.78
2023-03-11T07:04:23.995Z,24.60
2023-03-11T07:07:30.584Z,24.41
2023-03-11T07:10:34.665Z,24.71
2023-03-11T07:13:38.980Z,24.87
2023-03-11T07:16:46.546Z,25.56
2023-03-11T07:20:07.454Z,24.69
2023-03-11T07:23:11.407Z,24.75
2023-03-11T07:26:16.637Z,23.25
2023-03-11T07:29:21.328Z,23.23
2023-03-11T07:32:25.203Z,23.44
2023-03-11T07:35:29.408Z,23.48
2023-03-11T07:38:42.504Z,23.41
2023-03-11T07:41:48.823Z,23.66
2023-03-11T07:44:56.233Z,23.64
2023-03-11T07:48:07.648Z,24.25
2023-03-11T07:51:21.983Z,23.65
2023-03-11T07:54:26.344Z,24.07
2023-03-11T07:57:33.354Z,23.96
2023-03-11T08:00:36.954Z,23.83
2023-03-11T08:03:45.792Z,23.69
2023-03-11T08:06:55.964Z,23.25
2023-03-11T08:10:06.737Z,23.71
2023-03-11T08:13:13.639Z,23.37
2023-03-11T08:16:26.539Z,23.21
2023-03-11T08:19:36.112Z,23.68
2023-03-11T08:22:57.677Z,23.98
2023-03-11T08:26:46.996Z,23.56
2023-03-11T08:30:03.429Z,23.36
2023-03-11T08:37:30.237Z,23.72
2023-03-11T08:40:33.868Z,23.99
2023-03-11T08:43:43.894Z,23.52
2023-03-11T08:47:14.640Z,23.42
2023-03-11T08:50:24.238Z,23.38
2023-03-11T08:53:34.663Z,23.03
2023-03-11T08:56:42.642Z,23.62
2023-03-11T08:59:47.816Z,23.50
2023-03-11T09:02:51.997Z,23.41
2023-03-11T09:07:24.967Z,23.75
2023-03-11T09:15:12.798Z,23.68
2023-03-11T09:18:52.440Z,23.94
2023-03-11T09:22:35.980Z,24.37
2023-03-11T09:26:21.510Z,24.22
2023-03-11T09:29:25.272Z,24.21
2023-03-11T09:32:28.997Z,24.34
2023-03-11T09:35:32.720Z,24.58
2023-03-11T09:38:39.578Z,24.32
2023-03-11T09:41:58.377Z,24.02
2023-03-11T09:45:37.706Z,24.21
2023-03-11T09:52:25.246Z,24.96
2023-03-11T09:55:42.392Z,24.47
2023-03-11T09:58:51.462Z,24.65
2023-03-11T10:01:55.205Z,25.25
2023-03-11T10:05:16.376Z,25.72
2023-03-11T10:08:30.623Z,25.87
2023-03-11T10:11:51.337Z,24.95
2023-03-11T10:15:39.712Z,25.05
2023-03-11T10:19:00.252Z,25.10
2023-03-11T10:22:20.413Z,25.84
2023-03-11T10:25:31.805Z,26.20
2023-03-11T10:29:00.513Z,26.57
2023-03-11T10:32:14.663Z,27.46
2023-03-11T10:35:37.249Z,28.18
2023-03-11T10:38:50.114Z,28.49
2023-03-11T10:42:01.341Z,29.07
2023-03-11T10:45:16.657Z,28.97
2023-03-11T10:48:23.097Z,29.33
2023-03-11T10:51:34.368Z,29.45
2023-03-11T10:54:42.106Z,29.80
2023-03-11T10:57:48.002Z,29.44
2023-03-11T11:01:18.246Z,29.75
2023-03-11T11:04:32.960Z,29.73
2023-03-11T11:07:43.118Z,29.69
2023-03-11T11:10:57.207Z,29.60
2023-03-11T11:14:01.781Z,29.66
2023-03-11T11:17:05.436Z,29.98
2023-03-11T11:20:19.114Z,29.79
2023-03-11T11:24:03.220Z,29.75
2023-03-11T11:27:27.996Z,29.85
2023-03-11T11:30:31.972Z,29.93
2023-03-11T11:33:49.049Z,30.00
2023-03-11T11:36:55.025Z,29.90
2023-03-11T11:40:22.657Z,29.69
2023-03-11T11:43:37.943Z,30.00
2023-03-11T11:46:45.583Z,29.91
2023-03-11T11:49:57.348Z,30.36
2023-03-11T11:53:22.049Z,30.36
2023-03-11T11:56:27.668Z,30.17
2023-03-11T11:59:32.758Z,30.42
2023-03-11T12:02:56.480Z,30.21
2023-03-11T12:06:03.496Z,30.13
2023-03-11T12:09:36.268Z,30.26
2023-03-11T12:13:06.803Z,30.47
2023-03-11T12:17:04.157Z,30.64
2023-03-11T12:20:16.549Z,30.34
2023-03-11T12:23:30.314Z,30.47
2023-03-11T12:26:39.091Z,30.34
2023-03-11T12:29:48.481Z,30.12
2023-03-11T12:32:58.429Z,30.14
2023-03-11T12:36:04.521Z,30.00
2023-03-11T12:39:20.636Z,30.28
2023-03-11T12:42:28.300Z,30.62
2023-03-11T12:45:51.553Z,30.62
2023-03-11T12:49:15.064Z,30.82
2023-03-11T12:52:22.630Z,31.03
2023-03-11T12:55:32.261Z,31.01
2023-03-11T12:59:20.171Z,31.03
2023-03-11T13:02:54.316Z,30.90
2023-03-11T13:06:06.651Z,31.15
2023-03-11T13:09:17.966Z,31.38
2023-03-11T13:12:46.174Z,31.31
2023-03-11T13:15:49.978Z,31.18
2023-03-11T13:19:17.208Z,31.04
2023-03-11T13:22:45.404Z,31.24
2023-03-11T13:25:48.846Z,31.20
2023-03-11T13:29:14.556Z,31.47
2023-03-11T13:32:44.056Z,31.32
2023-03-11T13:36:18.240Z,31.24
2023-03-11T13:39:47.246Z,31.24
2023-03-11T13:42:53.917Z,31.55
2023-03-11T13:46:14.425Z,31.59
2023-03-11T13:49:36.053Z,31.82
2023-03-11T13:52:54.542Z,32.05
2023-03-11T13:55:58.167Z,32.04
2023-03-11T13:59:28.111Z,32.32
2023-03-11T14:02:31.642Z,32.27
2023-03-11T14:05:37.863Z,32.17
2023-03-11T14:08:41.860Z,32.20
2023-03-11T14:11:48.831Z,32.36
2023-03-11T14:15:03.876Z,32.39
2023-03-11T14:18:28.227Z,32.66
2023-03-11T14:21:32.780Z,32.80
2023-03-11T14:24:37.002Z,32.85
2023-03-11T14:27:40.885Z,33.15
2023-03-11T14:31:00.111Z,33.43
2023-03-11T14:34:16.875Z,33.41
2023-03-11T14:37:35.064Z,33.16
2023-03-11T14:40:42.837Z,33.07
2023-03-11T14:43:51.465Z,33.15
2023-03-11T14:47:01.429Z,33.26
2023-03-11T14:50:08.570Z,33.64
2023-03-11T14:53:34.064Z,33.70
2023-03-11T14:56:42.535Z,33.81
2023-03-11T14:59:47.897Z,34.31
2023-03-11T15:02:57.202Z,33.97
2023-03-11T15:06:36.816Z,34.16
2023-03-11T15:09:42.585Z,34.39
2023-03-11T15:12:46.911Z,34.22
2023-03-11T15:16:02.087Z,34.39
2023-03-11T15:19:35.503Z,34.75
2023-03-11T15:22:42.455Z,34.46
2023-03-11T15:25:50.445Z,34.54
2023-03-11T15:29:00.998Z,34.81
2023-03-11T15:32:39.555Z,34.84
2023-03-11T15:35:50.122Z,34.65
2023-03-11T15:39:14.531Z,34.95
2023-03-11T15:42:27.058Z,34.94
2023-03-11T15:45:31.218Z,34.90
2023-03-11T15:48:34.584Z,35.19
2023-03-11T15:51:38.168Z,34.87
2023-03-11T15:54:43.157Z,35.12
2023-03-11T15:57:50.236Z,35.04
2023-03-11T16:00:57.312Z,35.32
2023-03-11T16:04:00.861Z,34.97
2023-03-11T16:07:08.852Z,35.04
2023-03-11T16:10:12.893Z,35.31
2023-03-11T16:13:20.216Z,35.32
2023-03-11T16:16:23.948Z,35.44
2023-03-11T16:19:27.608Z,35.38
2023-03-11T16:22:46.850Z,35.64
2023-03-11T16:25:58.534Z,35.44
2023-03-11T16:29:18.174Z,35.76
2023-03-11T16:32:25.718Z,35.69
2023-03-11T16:35:29.425Z,36.08
2023-03-11T16:38:42.328Z,35.77
2023-03-11T16:41:46.034Z,36.14
2023-03-11T16:44:49.508Z,36.11
2023-03-11T16:47:53.093Z,35.79
2023-03-11T16:50:59.393Z,36.07
2023-03-11T16:54:02.880Z,36.11
2023-03-11T16:57:06.240Z,36.42
2023-03-11T17:00:12.180Z,36.39
2023-03-11T17:03:21.091Z,36.70
2023-03-11T17:06:24.893Z,37.06
2023-03-11T17:09:28.320Z,37.02
2023-03-11T17:12:31.828Z,37.23
2023-03-11T17:15:36.422Z,37.44
2023-03-11T17:18:40.122Z,37.67
2023-03-11T17:21:44.354Z,37.89
2023-03-11T17:24:47.756Z,38.26
2023-03-11T17:27:51.497Z,37.95
2023-03-11T17:30:56.870Z,38.11
2023-03-11T17:34:00.325Z,37.81
2023-03-11T17:37:03.944Z,37.93
2023-03-11T17:40:08.115Z,37.71
2023-03-11T17:43:11.641Z,37.85
2023-03-11T17:46:18.136Z,38.45
2023-03-11T17:49:24.520Z,38.43
2023-03-11T17:52:28.210Z,38.79
2023-03-11T17:55:32.224Z,39.21
2023-03-11T17:58:36.576Z,39.22
2023-03-11T18:01:40.163Z,39.15
2023-03-11T18:04:46.760Z,39.43
2023-03-11T18:07:50.515Z,39.08
2023-03-11T18:10:58.923Z,38.81
2023-03-11T18:14:02.313Z,38.91
2023-03-11T18:17:05.946Z,38.51
2023-03-11T18:20:10.117Z,39.08
2023-03-11T18:23:13.644Z,38.91
2023-03-11T18:26:19.423Z,39.40
2023-03-11T18:29:24.335Z,39.32
2023-03-11T18:32:27.956Z,39.50
2023-03-11T18:35:31.538Z,39.48
2023-03-11T18:38:35.021Z,39.57
2023-03-11T18:41:38.471Z,39.37
2023-03-11T18:44:49.545Z,39.41
2023-03-11T18:48:18.348Z,39.60
2023-03-11T18:51:34.602Z,39.36
2023-03-11T18:54:38.241Z,39.39
2023-03-11T18:57:43.813Z,39.28
2023-03-11T19:00:48.330Z,39.05
2023-03-11T19:04:17.156Z,38.79
2023-03-11T19:07:20.678Z,38.86
2023-03-11T19:10:24.056Z,38.78
2023-03-11T19:13:40.763Z,38.77
2023-03-11T19:16:50.311Z,38.83
2023-03-11T19:19:53.926Z,38.97
2023-03-11T19:22:57.426Z,39.17
2023-03-11T19:26:03.415Z,38.93
2023-03-11T19:29:07.774Z,39.01
2023-03-11T19:32:11.243Z,39.14
2023-03-11T19:35:17.556Z,38.91
2023-03-11T19:38:22.333Z,38.87
2023-03-11T19:41:25.865Z,38.94
2023-03-11T19:44:29.222Z,38.57
2023-03-11T19:47:32.734Z,38.70
2023-03-11T19:50:36.332Z,38.61
2023-03-11T19:53:41.333Z,38.38
2023-03-11T19:56:44.982Z,40.79
2023-03-11T19:59:48.502Z,41.99
2023-03-11T20:02:52.033Z,42.65
2023-03-11T20:05:58.580Z,43.15
2023-03-11T20:09:02.222Z,43.27
2023-03-11T20:12:05.927Z,43.63
2023-03-11T20:15:09.779Z,43.54
2023-03-11T20:18:13.312Z,43.71
2023-03-11T20:21:17.060Z,43.96
2023-03-11T20:24:20.510Z,44.21
2023-03-11T20:27:25.445Z,44.47
2023-03-11T20:30:32.248Z,44.77
2023-03-11T20:33:37.548Z,45.11
2023-03-11T20:36:41.078Z,45.01
2023-03-11T20:39:44.627Z,45.28
2023-03-11T20:42:48.178Z,45.16
2023-03-11T20:45:51.785Z,45.45
2023-03-11T20:48:55.298Z,45.61
2023-03-11T20:51:58.843Z,45.28
2023-03-11T20:55:03.537Z,45.79
2023-03-11T20:58:07.133Z,45.37
2023-03-11T21:01:38.226Z,46.15
2023-03-11T21:04:43.672Z,46.61
2023-03-11T21:07:49.975Z,46.85
2023-03-11T21:11:05.107Z,47.37
2023-03-11T21:14:09.452Z,47.31
2023-03-11T21:17:12.939Z,47.38
2023-03-11T21:20:17.592Z,47.67
2023-03-11T21:23:24.018Z,47.88
2023-03-11T21:26:27.806Z,48.16
2023-03-11T21:29:34.314Z,48.06
2023-03-11T21:32:37.779Z,48.31
2023-03-11T21:35:41.505Z,48.42
2023-03-11T21:38:45.143Z,48.22
2023-03-11T21:41:49.150Z,48.52
2023-03-11T21:44:55.852Z,48.51
2023-03-11T21:48:02.875Z,48.22
2023-03-11T21:51:07.541Z,48.06
2023-03-11T21:54:11.837Z,47.72
2023-03-11T21:57:15.430Z,47.60
2023-03-11T22:00:19.478Z,48.15
2023-03-11T22:03:23.671Z,48.26
2023-03-11T22:06:27.505Z,48.04
2023-03-11T22:09:31.242Z,47.67
2023-03-11T22:12:35.055Z,48.24
2023-03-11T22:15:42.089Z,49.41
2023-03-11T22:18:45.976Z,49.72
2023-03-11T22:21:53.574Z,49.94
2023-03-11T22:24:57.049Z,50.58
2023-03-11T22:28:00.652Z,50.30
2023-03-11T22:31:09.634Z,50.00
2023-03-11T22:34:13.136Z,49.89
2023-03-11T22:37:16.816Z,49.98
2023-03-11T22:40:20.420Z,50.17
2023-03-11T22:43:27.349Z,50.73
2023-03-11T22:46:31.238Z,50.83
2023-03-11T22:49:38.039Z,50.60
2023-03-11T22:52:41.569Z,50.26
2023-03-11T22:55:48.322Z,50.12
2023-03-11T22:58:51.796Z,49.52
2023-03-11T23:01:55.930Z,49.90
2023-03-11T23:04:59.422Z,49.41
2023-03-11T23:08:03.043Z,49.36
2023-03-11T23:11:09.417Z,49.86
2023-03-11T23:14:12.894Z,50.81
2023-03-11T23:17:16.359Z,51.53
2023-03-11T23:20:20.197Z,52.20
2023-03-11T23:23:23.639Z,52.54
2023-03-11T23:26:27.573Z,52.32
2023-03-11T23:29:31.191Z,52.14
2023-03-11T23:32:34.749Z,51.98
2023-03-11T23:35:42.956Z,51.06
2023-03-11T23:38:52.741Z,48.77
2023-03-11T23:41:57.177Z,45.78
2023-03-11T23:45:00.970Z,43.01
2023-03-11T23:48:04.468Z,39.94
2023-03-11T23:51:11.030Z,37.80
2023-03-11T23:54:14.535Z,35.71
2023-03-11T23:57:18.206Z,34.17
